createdAt,value
2022-10-20T00:01:56.691Z,6.71
2022-10-20T00:04:25.897Z,6.76
2022-10-20T00:06:53.745Z,6.64
2022-10-20T00:09:21.807Z,6.60
2022-10-20T00:11:49.716Z,6.50
2022-10-20T00:14:17.740Z,6.47
2022-10-20T00:16:45.658Z,6.45
2022-10-20T00:19:13.602Z,6.43
2022-10-20T00:21:42.781Z,6.40
2022-10-20T00:24:12.960Z,6.38
2022-10-20T00:26:40.785Z,6.57
2022-10-20T00:29:08.666Z,6.55
2022-10-20T00:31:36.562Z,6.61
2022-10-20T00:34:04.402Z,6.65
2022-10-20T00:36:32.379Z,6.43
2022-10-20T00:39:03.485Z,6.25
2022-10-20T00:41:32.303Z,6.35
2022-10-20T00:44:02.499Z,6.22
2022-10-20T00:46:37.923Z,6.35
2022-10-20T00:49:13.372Z,6.35
2022-10-20T00:51:43.808Z,6.40
2022-10-20T00:54:19.199Z,6.39
2022-10-20T00:56:49.584Z,6.42
2022-10-20T00:59:20.828Z,6.32
2022-10-20T01:01:49.882Z,6.24
2022-10-20T01:04:18.816Z,6.28
2022-10-20T01:06:47.860Z,6.17
2022-10-20T01:09:17.098Z,6.15
2022-10-20T01:11:55.900Z,6.06
2022-10-20T01:14:34.987Z,6.15
2022-10-20T01:17:13.513Z,5.99
2022-10-20T01:20:19.152Z,6.14
2022-10-20T01:23:14.523Z,6.01
2022-10-20T01:26:01.070Z,6.00
2022-10-20T01:28:36.432Z,6.00
2022-10-20T01:31:13.796Z,5.96
2022-10-20T01:33:47.600Z,5.79
2022-10-20T01:36:22.132Z,5.76
2022-10-20T01:38:58.307Z,5.80
2022-10-20T01:41:32.966Z,5.69
2022-10-20T01:44:04.233Z,5.67
2022-10-20T01:46:33.467Z,5.63
2022-10-20T01:49:04.192Z,5.61
2022-10-20T01:51:33.174Z,5.49
2022-10-20T01:54:01.077Z,5.44
2022-10-20T01:56:38.496Z,5.57
2022-10-20T01:59:27.964Z,5.47
2022-10-20T02:02:19.335Z,5.49
2022-10-20T02:05:03.893Z,5.53
2022-10-20T02:07:34.291Z,5.45
2022-10-20T02:10:11.060Z,5.48
2022-10-20T02:12:44.775Z,5.49
2022-10-20T02:15:20.748Z,5.56
2022-10-20T02:17:56.515Z,5.67
2022-10-20T02:20:33.275Z,5.63
2022-10-20T02:23:05.821Z,5.57
2022-10-20T02:25:35.465Z,5.64
2022-10-20T02:28:13.723Z,5.65
2022-10-20T02:30:50.864Z,5.63
2022-10-20T02:33:24.767Z,5.73
2022-10-20T02:35:58.838Z,5.71
2022-10-20T02:38:30.373Z,5.69
2022-10-20T02:40:58.287Z,5.65
2022-10-20T02:43:26.032Z,5.75
2022-10-20T02:45:57.619Z,5.65
2022-10-20T02:48:25.597Z,5.63
2022-10-20T02:50:53.412Z,5.58
2022-10-20T02:53:23.368Z,5.65
2022-10-20T02:55:51.137Z,5.67
2022-10-20T02:58:19.035Z,5.58
2022-10-20T03:00:46.936Z,5.63
2022-10-20T03:03:16.152Z,5.68
2022-10-20T03:05:44.549Z,5.72
2022-10-20T03:08:12.911Z,5.74
2022-10-20T03:10:41.604Z,5.68
2022-10-20T03:13:10.073Z,5.73
2022-10-20T03:15:38.700Z,5.72
2022-10-20T03:18:06.717Z,5.71
2022-10-20T03:20:36.111Z,5.66
2022-10-20T03:23:04.106Z,5.79
2022-10-20T03:25:33.008Z,5.82
2022-10-20T03:28:00.789Z,5.86
2022-10-20T03:30:28.747Z,5.93
2022-10-20T03:32:57.383Z,5.91
2022-10-20T03:35:25.385Z,5.88
2022-10-20T03:37:54.621Z,5.87
2022-10-20T03:40:22.444Z,5.78
2022-10-20T03:42:50.284Z,5.80
2022-10-20T03:45:18.713Z,5.83
2022-10-20T03:47:46.578Z,5.94
2022-10-20T03:50:14.503Z,6.01
2022-10-20T03:52:42.333Z,6.01
2022-10-20T03:55:11.660Z,5.99
2022-10-20T03:57:39.493Z,5.98
2022-10-20T04:00:08.671Z,6.03
2022-10-20T04:02:39.722Z,6.15
2022-10-20T04:05:08.763Z,6.04
2022-10-20T04:07:36.718Z,6.07
2022-10-20T04:10:05.162Z,5.95
2022-10-20T04:12:35.224Z,6.00
2022-10-20T04:15:03.954Z,6.06
2022-10-20T04:17:32.301Z,6.02
2022-10-20T04:20:00.140Z,5.99
2022-10-20T04:22:28.024Z,5.94
2022-10-20T04:24:55.882Z,5.88
2022-10-20T04:27:23.790Z,5.96
2022-10-20T04:29:54.011Z,5.96
2022-10-20T04:32:22.956Z,6.06
2022-10-20T04:34:50.822Z,6.09
2022-10-20T04:37:19.108Z,6.07
2022-10-20T04:39:47.143Z,6.03
2022-10-20T04:42:15.016Z,6.10
2022-10-20T04:44:43.143Z,6.03
2022-10-20T04:47:12.637Z,6.01
2022-10-20T04:49:41.771Z,6.02
2022-10-20T04:52:20.729Z,5.98
2022-10-20T04:54:49.486Z,6.02
2022-10-20T04:57:18.388Z,5.98
2022-10-20T04:59:46.921Z,6.03
2022-10-20T05:02:16.108Z,5.99
2022-10-20T05:04:44.057Z,5.98
2022-10-20T05:07:12.056Z,5.83
2022-10-20T05:09:39.964Z,5.79
2022-10-20T05:12:07.878Z,5.79
2022-10-20T05:14:35.737Z,5.80
2022-10-20T05:17:06.459Z,5.91
2022-10-20T05:19:38.557Z,5.83
2022-10-20T05:22:06.496Z,5.85
2022-10-20T05:24:34.356Z,5.90
2022-10-20T05:27:03.505Z,5.93
2022-10-20T05:29:34.307Z,5.91
2022-10-20T05:32:02.261Z,5.96
2022-10-20T05:34:30.357Z,6.01
2022-10-20T05:36:59.640Z,5.98
2022-10-20T05:39:27.524Z,6.01
2022-10-20T05:41:55.317Z,5.86
2022-10-20T05:44:23.414Z,5.92
2022-10-20T05:46:51.301Z,5.79
2022-10-20T05:49:19.775Z,5.81
2022-10-20T05:51:48.257Z,5.81
2022-10-20T05:54:17.728Z,5.86
2022-10-20T05:56:45.831Z,5.77
2022-10-20T05:59:14.169Z,5.75
2022-10-20T06:01:48.253Z,5.83
2022-10-20T06:04:17.994Z,5.80
2022-10-20T06:06:46.223Z,5.72
2022-10-20T06:09:14.241Z,5.63
2022-10-20T06:11:43.609Z,5.76
2022-10-20T06:14:11.802Z,5.73
2022-10-20T06:16:40.063Z,5.78
2022-10-20T06:19:07.898Z,5.85
2022-10-20T06:21:37.127Z,5.80
2022-10-20T06:24:06.799Z,5.79
2022-10-20T06:26:37.437Z,5.80
2022-10-20T06:29:08.922Z,5.85
2022-10-20T06:31:39.766Z,5.86
2022-10-20T06:34:09.044Z,5.93
2022-10-20T06:36:38.319Z,5.98
2022-10-20T06:39:08.276Z,6.03
2022-10-20T06:41:39.225Z,6.02
2022-10-20T06:44:08.532Z,6.09
2022-10-20T06:46:38.283Z,6.13
2022-10-20T06:49:08.913Z,6.21
2022-10-20T06:51:37.933Z,6.29
2022-10-20T06:54:07.434Z,6.32
2022-10-20T06:56:37.011Z,6.44
2022-10-20T06:59:07.347Z,6.48
2022-10-20T07:01:47.098Z,6.48
2022-10-20T07:04:16.727Z,6.42
2022-10-20T07:06:46.348Z,6.53
2022-10-20T07:09:17.499Z,6.61
2022-10-20T07:11:45.971Z,6.70
2022-10-20T07:14:14.918Z,6.80
2022-10-20T07:16:45.507Z,6.89
2022-10-20T07:19:13.474Z,6.90
2022-10-20T07:21:45.281Z,6.90
2022-10-20T07:24:14.304Z,7.00
2022-10-20T07:26:42.766Z,7.00
2022-10-20T07:29:11.915Z,7.05
2022-10-20T07:31:42.044Z,7.05
2022-10-20T07:34:24.881Z,7.08
2022-10-20T07:36:54.133Z,7.17
2022-10-20T07:39:22.497Z,7.16
2022-10-20T07:41:50.775Z,7.22
2022-10-20T07:44:18.865Z,7.24
2022-10-20T07:46:46.971Z,7.28
2022-10-20T07:49:42.998Z,7.39
2022-10-20T07:52:04.859Z,7.49
2022-10-20T07:54:32.918Z,7.58
2022-10-20T07:57:00.888Z,7.54
2022-10-20T07:59:29.615Z,7.66
2022-10-20T08:01:59.592Z,7.91
2022-10-20T08:04:31.985Z,7.97
2022-10-20T08:07:00.250Z,7.93
2022-10-20T08:09:28.158Z,8.13
2022-10-20T08:11:58.509Z,8.18
2022-10-20T08:14:30.736Z,8.24
2022-10-20T08:17:02.227Z,8.34
2022-10-20T08:22:14.569Z,8.47
2022-10-20T08:24:44.492Z,8.62
2022-10-20T08:27:16.996Z,8.69
2022-10-20T08:30:22.765Z,8.56
2022-10-20T08:32:54.455Z,8.78
2022-10-20T08:35:24.927Z,8.90
2022-10-20T08:37:54.055Z,8.85
2022-10-20T08:40:28.318Z,8.75
2022-10-20T08:42:57.409Z,8.85
2022-10-20T08:45:38.305Z,8.84
2022-10-20T08:48:06.936Z,8.90
2022-10-20T08:50:47.554Z,8.89
2022-10-20T08:53:18.698Z,9.28
2022-10-20T08:55:48.609Z,9.38
2022-10-20T08:58:25.333Z,9.65
2022-10-20T09:01:02.268Z,9.68
2022-10-20T09:03:32.203Z,10.32
2022-10-20T09:06:08.524Z,10.83
2022-10-20T09:08:39.623Z,10.90
2022-10-20T09:11:17.786Z,11.10
2022-10-20T09:13:51.813Z,11.41
2022-10-20T09:16:40.616Z,10.84
2022-10-20T09:19:23.081Z,11.08
2022-10-20T09:21:56.873Z,11.15
2022-10-20T09:24:32.120Z,11.13
2022-10-20T09:27:44.645Z,11.15
2022-10-20T09:30:22.808Z,11.11
2022-10-20T09:32:54.562Z,11.46
2022-10-20T09:35:28.770Z,11.17
2022-10-20T09:38:22.526Z,11.15
2022-10-20T09:41:17.291Z,10.96
2022-10-20T09:43:59.238Z,10.78
2022-10-20T09:46:36.017Z,11.27
2022-10-20T09:49:28.618Z,11.48
2022-10-20T09:51:57.513Z,11.53
2022-10-20T09:54:40.862Z,11.44
2022-10-20T09:57:18.149Z,11.49
2022-10-20T09:59:50.108Z,11.49
2022-10-20T10:02:40.111Z,11.69
2022-10-20T10:05:23.245Z,11.55
2022-10-20T10:08:01.124Z,11.83
2022-10-20T10:10:40.686Z,11.54
2022-10-20T10:13:26.831Z,11.50
2022-10-20T10:16:08.314Z,11.51
2022-10-20T10:18:48.272Z,11.38
2022-10-20T10:21:27.973Z,11.67
2022-10-20T10:23:57.921Z,12.54
2022-10-20T10:27:01.405Z,12.96
2022-10-20T10:29:33.026Z,13.04
2022-10-20T10:32:20.856Z,13.62
2022-10-20T10:35:07.182Z,13.60
2022-10-20T10:37:37.004Z,14.14
2022-10-20T10:40:17.653Z,14.15
2022-10-20T10:43:17.214Z,14.13
2022-10-20T10:46:03.492Z,14.11
2022-10-20T10:49:09.795Z,13.89
2022-10-20T10:51:51.665Z,14.02
2022-10-20T10:54:32.678Z,14.05
2022-10-20T10:57:06.080Z,14.20
2022-10-20T10:59:42.060Z,14.14
2022-10-20T11:02:35.183Z,13.89
2022-10-20T11:05:28.713Z,14.16
2022-10-20T11:08:07.342Z,14.17
2022-10-20T11:10:42.663Z,14.36
2022-10-20T11:13:23.048Z,14.20
2022-10-20T11:16:08.374Z,14.83
2022-10-20T11:18:57.820Z,15.16
2022-10-20T11:21:34.821Z,15.41
2022-10-20T11:24:39.295Z,15.39
2022-10-20T11:27:15.476Z,15.19
2022-10-20T11:30:09.460Z,14.78
2022-10-20T11:32:48.432Z,14.53
2022-10-20T11:35:37.401Z,14.51
2022-10-20T11:38:17.267Z,14.47
2022-10-20T11:41:10.862Z,14.49
2022-10-20T11:43:48.845Z,14.15
2022-10-20T11:46:28.435Z,14.00
2022-10-20T11:49:09.913Z,13.84
2022-10-20T11:52:43.295Z,13.52
2022-10-20T11:55:34.395Z,13.65
2022-10-20T11:58:27.088Z,13.70
2022-10-20T12:01:20.804Z,13.66
2022-10-20T12:04:28.879Z,13.41
2022-10-20T12:07:32.736Z,13.69
2022-10-20T12:10:14.419Z,13.47
2022-10-20T12:13:10.077Z,13.58
2022-10-20T12:15:47.161Z,13.61
2022-10-20T12:18:26.794Z,13.72
2022-10-20T12:21:01.527Z,13.93
2022-10-20T12:23:57.775Z,13.57
2022-10-20T12:27:10.760Z,13.43
2022-10-20T12:29:58.313Z,13.15
2022-10-20T12:32:37.678Z,12.91
2022-10-20T12:35:30.005Z,12.77
2022-10-20T12:38:02.454Z,12.60
2022-10-20T12:40:33.619Z,12.37
2022-10-20T12:43:01.758Z,12.21
2022-10-20T12:45:38.452Z,12.20
2022-10-20T12:48:10.490Z,12.09
2022-10-20T12:50:41.482Z,12.19
2022-10-20T12:53:20.111Z,12.02
2022-10-20T12:55:54.938Z,12.10
2022-10-20T12:58:32.089Z,11.96
2022-10-20T13:01:09.966Z,11.90
2022-10-20T13:03:45.496Z,11.82
2022-10-20T13:06:44.443Z,11.82
2022-10-20T13:09:22.437Z,11.77
2022-10-20T13:12:06.027Z,11.58
2022-10-20T13:14:54.375Z,11.64
2022-10-20T13:17:56.282Z,11.58
2022-10-20T13:20:42.658Z,11.44
2022-10-20T13:23:13.812Z,11.55
2022-10-20T13:25:46.090Z,11.53
2022-10-20T13:28:19.869Z,11.50
2022-10-20T13:31:17.852Z,11.38
2022-10-20T13:34:04.239Z,11.27
2022-10-20T13:36:49.117Z,11.36
2022-10-20T13:39:23.416Z,11.34
2022-10-20T13:42:02.628Z,11.42
2022-10-20T13:44:40.381Z,11.31
2022-10-20T13:47:28.994Z,11.34
2022-10-20T13:50:05.944Z,11.18
2022-10-20T13:52:39.570Z,11.38
2022-10-20T13:55:15.916Z,11.36
2022-10-20T13:57:55.314Z,11.35
2022-10-20T14:00:29.600Z,11.31
2022-10-20T14:03:01.227Z,11.28
2022-10-20T14:05:31.524Z,11.30
2022-10-20T14:08:04.713Z,11.22
2022-10-20T14:10:40.440Z,11.33
2022-10-20T14:13:12.270Z,11.31
2022-10-20T14:15:40.370Z,11.23
2022-10-20T14:18:20.907Z,11.18
2022-10-20T14:20:57.432Z,11.28
2022-10-20T14:23:26.167Z,11.26
2022-10-20T14:25:57.799Z,11.32
2022-10-20T14:28:32.641Z,11.33
2022-10-20T14:31:02.357Z,11.23
2022-10-20T14:33:34.597Z,11.27
2022-10-20T14:36:04.948Z,11.38
2022-10-20T14:38:38.055Z,11.36
2022-10-20T14:41:09.530Z,11.62
2022-10-20T14:43:41.753Z,11.68
2022-10-20T14:46:15.040Z,11.75
2022-10-20T14:48:45.726Z,11.66
2022-10-20T14:51:31.031Z,11.66
2022-10-20T14:54:26.627Z,11.67
2022-10-20T14:56:56.522Z,11.72
2022-10-20T14:59:27.997Z,11.67
2022-10-20T15:02:10.028Z,11.65
2022-10-20T15:04:39.285Z,11.67
2022-10-20T15:07:13.865Z,11.72
2022-10-20T15:09:44.540Z,11.69
2022-10-20T15:12:18.751Z,11.75
2022-10-20T15:14:54.001Z,11.79
2022-10-20T15:17:36.824Z,11.82
2022-10-20T15:20:32.251Z,11.81
2022-10-20T15:23:02.339Z,11.86
2022-10-20T15:25:32.552Z,11.84
2022-10-20T15:28:00.973Z,11.86
2022-10-20T15:30:36.926Z,11.85
2022-10-20T15:33:05.333Z,11.90
2022-10-20T15:35:34.206Z,11.88
2022-10-20T15:38:02.186Z,11.94
2022-10-20T15:40:31.048Z,11.87
2022-10-20T15:42:59.930Z,11.92
2022-10-20T15:45:39.536Z,11.98
2022-10-20T15:48:53.939Z,12.03
2022-10-20T15:51:39.881Z,12.14
2022-10-20T15:54:09.995Z,12.20
2022-10-20T15:56:51.411Z,12.21
2022-10-20T15:59:27.589Z,12.18
2022-10-20T16:02:12.474Z,12.18
2022-10-20T16:04:40.339Z,12.16
2022-10-20T16:07:08.242Z,12.21
2022-10-20T16:09:36.090Z,12.19
2022-10-20T16:12:03.991Z,12.25
2022-10-20T16:14:33.719Z,12.22
2022-10-20T16:17:03.626Z,12.23
2022-10-20T16:19:33.512Z,12.26
2022-10-20T16:22:01.762Z,12.14
2022-10-20T16:24:32.177Z,12.23
2022-10-20T16:27:00.374Z,12.28
2022-10-20T16:29:28.296Z,12.25
2022-10-20T16:31:57.909Z,12.29
2022-10-20T16:34:26.283Z,12.26
2022-10-20T16:36:55.544Z,12.35
2022-10-20T16:39:23.477Z,12.33
2022-10-20T16:41:51.302Z,12.33
2022-10-20T16:44:19.293Z,12.35
2022-10-20T16:46:50.631Z,12.31
2022-10-20T16:49:21.190Z,12.31
2022-10-20T16:51:49.241Z,12.27
2022-10-20T16:54:19.043Z,12.27
2022-10-20T16:56:46.887Z,12.38
2022-10-20T16:59:14.786Z,12.36
2022-10-20T17:01:42.686Z,12.38
2022-10-20T17:04:12.513Z,12.38
2022-10-20T17:06:40.697Z,12.39
2022-10-20T17:09:09.280Z,12.39
2022-10-20T17:11:39.034Z,12.36
2022-10-20T17:14:07.360Z,12.43
2022-10-20T17:16:38.166Z,12.42
2022-10-20T17:19:06.400Z,12.42
2022-10-20T17:21:34.879Z,12.43
2022-10-20T17:24:03.701Z,12.40
2022-10-20T17:26:32.462Z,12.38
2022-10-20T17:29:02.941Z,12.36
2022-10-20T17:31:31.500Z,12.42
2022-10-20T17:34:00.587Z,12.49
2022-10-20T17:36:29.968Z,12.43
2022-10-20T17:39:00.213Z,12.50
2022-10-20T17:41:29.138Z,12.52
2022-10-20T17:43:57.125Z,12.51
2022-10-20T17:46:26.558Z,12.49
2022-10-20T17:48:54.866Z,12.49
2022-10-20T17:51:26.848Z,12.55
2022-10-20T17:53:58.099Z,12.45
2022-10-20T17:56:28.622Z,12.51
2022-10-20T17:58:57.796Z,12.55
2022-10-20T18:01:30.724Z,12.56
2022-10-20T18:04:00.605Z,12.52
2022-10-20T18:06:33.844Z,12.48
2022-10-20T18:09:05.804Z,12.57
2022-10-20T18:11:35.495Z,12.61
2022-10-20T18:14:04.041Z,12.58
2022-10-20T18:16:36.054Z,12.55
2022-10-20T18:19:04.428Z,12.50
2022-10-20T18:21:33.712Z,12.51
2022-10-20T18:24:03.897Z,12.38
2022-10-20T18:26:34.696Z,12.33
2022-10-20T18:29:03.959Z,12.15
2022-10-20T18:31:35.735Z,12.15
2022-10-20T18:34:09.310Z,12.06
2022-10-20T18:36:43.351Z,11.88
2022-10-20T18:39:14.663Z,11.86
2022-10-20T18:41:44.062Z,11.82
2022-10-20T18:44:14.251Z,11.69
2022-10-20T18:46:44.402Z,11.58
2022-10-20T18:49:14.398Z,11.50
2022-10-20T18:51:43.193Z,11.73
2022-10-20T18:54:12.464Z,11.60
2022-10-20T18:56:40.519Z,11.66
2022-10-20T18:59:13.217Z,11.58
2022-10-20T19:01:43.378Z,11.65
2022-10-20T19:04:12.550Z,11.66
2022-10-20T19:06:42.235Z,11.64
2022-10-20T19:09:12.333Z,11.72
2022-10-20T19:11:41.426Z,11.89
2022-10-20T19:14:11.455Z,11.90
2022-10-20T19:16:41.056Z,11.86
2022-10-20T19:19:12.475Z,11.93
2022-10-20T19:21:41.018Z,11.90
2022-10-20T19:24:14.323Z,11.90
2022-10-20T19:26:46.706Z,11.89
2022-10-20T19:29:20.246Z,11.93
2022-10-20T19:31:50.194Z,11.82
2022-10-20T19:34:25.857Z,11.77
2022-10-20T19:36:55.324Z,11.79
2022-10-20T19:39:27.046Z,11.84
2022-10-20T19:41:55.690Z,11.79
2022-10-20T19:44:23.769Z,11.66
2022-10-20T19:46:52.646Z,11.57
2022-10-20T19:49:23.682Z,11.75
2022-10-20T19:51:52.100Z,11.64
2022-10-20T19:54:20.933Z,11.74
2022-10-20T19:56:49.192Z,11.76
2022-10-20T19:59:18.291Z,11.77
2022-10-20T20:01:46.205Z,11.65
2022-10-20T20:04:14.153Z,11.79
2022-10-20T20:06:43.361Z,11.82
2022-10-20T20:09:15.417Z,11.82
2022-10-20T20:11:44.129Z,11.71
2022-10-20T20:14:19.983Z,11.71
2022-10-20T20:16:53.784Z,11.65
2022-10-20T20:19:21.629Z,11.63
2022-10-20T20:21:50.945Z,11.56
2022-10-20T20:24:20.951Z,11.53
2022-10-20T20:26:50.115Z,11.51
2022-10-20T20:29:25.002Z,11.63
2022-10-20T20:31:56.293Z,11.59
2022-10-20T20:34:27.516Z,11.49
2022-10-20T20:36:56.838Z,11.54
2022-10-20T20:39:27.907Z,11.49
2022-10-20T20:41:55.752Z,11.52
2022-10-20T20:46:58.812Z,11.49
2022-10-20T20:49:26.949Z,11.52
2022-10-20T20:51:56.427Z,11.60
2022-10-20T20:54:25.516Z,11.54
2022-10-20T20:56:55.215Z,11.62
2022-10-20T20:59:23.111Z,11.56
2022-10-20T21:01:53.137Z,11.46
2022-10-20T21:04:21.321Z,11.60
2022-10-20T21:07:01.597Z,11.52
2022-10-20T21:09:32.043Z,11.52
2022-10-20T21:12:02.219Z,11.47
2022-10-20T21:14:30.926Z,11.40
2022-10-20T21:17:01.102Z,11.33
2022-10-20T21:19:30.494Z,11.38
2022-10-20T21:22:01.475Z,11.42
2022-10-20T21:24:31.200Z,11.27
2022-10-20T21:26:59.129Z,11.25
2022-10-20T21:29:28.239Z,11.51
2022-10-20T21:31:58.045Z,11.40
2022-10-20T21:34:28.277Z,11.41
2022-10-20T21:36:56.550Z,11.31
2022-10-20T21:39:24.401Z,11.39
2022-10-20T21:41:53.607Z,11.47
2022-10-20T21:44:21.517Z,11.49
2022-10-20T21:46:50.776Z,11.34
2022-10-20T21:49:20.623Z,11.32
2022-10-20T21:51:52.345Z,11.27
2022-10-20T21:56:58.065Z,11.42
2022-10-20T21:59:28.851Z,11.32
2022-10-20T22:01:59.163Z,11.39
2022-10-20T22:04:29.541Z,11.39
2022-10-20T22:07:00.368Z,11.46
2022-10-20T22:09:28.996Z,11.48
2022-10-20T22:11:59.567Z,11.46
2022-10-20T22:14:27.707Z,11.51
2022-10-20T22:16:56.622Z,11.49
2022-10-20T22:19:25.790Z,11.52
2022-10-20T22:21:54.559Z,11.61
2022-10-20T22:24:23.072Z,11.68
2022-10-20T22:26:52.022Z,11.72
2022-10-20T22:29:22.186Z,11.73
2022-10-20T22:31:50.319Z,11.76
2022-10-20T22:34:18.419Z,11.71
2022-10-20T22:36:46.220Z,11.76
2022-10-20T22:39:14.836Z,11.77
2022-10-20T22:41:42.976Z,11.71
2022-10-20T22:44:11.084Z,11.64
2022-10-20T22:46:40.360Z,11.62
2022-10-20T22:49:08.354Z,11.61
2022-10-20T22:51:36.269Z,11.45
2022-10-20T22:54:04.424Z,11.59
2022-10-20T22:56:32.236Z,11.51
2022-10-20T22:59:00.124Z,11.54
2022-10-20T23:01:27.958Z,11.51
2022-10-20T23:03:59.238Z,11.46
2022-10-20T23:06:27.991Z,11.49
2022-10-20T23:08:59.252Z,11.50
2022-10-20T23:11:27.297Z,11.59
2022-10-20T23:13:55.091Z,11.64
2022-10-20T23:18:59.252Z,11.62
2022-10-20T23:21:27.583Z,11.61
2022-10-20T23:23:57.477Z,11.49
2022-10-20T23:26:25.480Z,11.50
2022-10-20T23:28:53.575Z,11.55
2022-10-20T23:31:23.258Z,11.60
2022-10-20T23:33:55.802Z,11.58
2022-10-20T23:36:25.261Z,11.53
2022-10-20T23:38:53.176Z,11.48
2022-10-20T23:41:21.179Z,11.48
2022-10-20T23:43:49.158Z,11.41
2022-10-20T23:46:17.018Z,11.46
2022-10-20T23:48:44.812Z,11.32
2022-10-20T23:51:12.708Z,11.21
2022-10-20T23:53:41.984Z,11.21
2022-10-20T23:56:09.869Z,11.33
2022-10-20T23:58:37.883Z,11.32
